Alledonia, Ohio
Current Conditions -  °F | °C
As of 11:53 PM on Friday 24 Oct 2014 (Local Time) from KHLG Reporting Station
Overcast Overcast  
Wind Chill: 48°   Ceiling: 4200
Heat Index: 48°   Visibility: 10mi
Dew Point: 39°   Wind: 0mph
Humidity: 71%   Direction: NA
Pressure: 30.02"   Gusts: NA
Location:  39.9°N, 80.97°W
Report Text: KHLG 250353Z AUTO 00000KT 10SM OVC042 09/04 A3002 RMK AO2 SLP171 T00890039
Loading
Personal Weather Stations






























Interactive Weather Map New forecast layout! Learn more

10-Day Weather Forecast

Advertisements
Track Severe Weather on mobile